iptv.ge alexa rank chart, iptv.ge alexa rank daily changes

iptv.ge alexa rank chart, iptv.ge alexa rank daily changes

iptv.ge
Actual rank:
159 880

RANK HISTORY

Date Rank Diff
2017/08/22 159 880 -1 049
2017/08/21 160 929 -4 004
2017/08/20 164 933 -370
2017/08/19 165 303 -7 374
2017/08/18 172 677 +1 129
2017/08/17 171 548 +1 039
2017/08/16 170 509 +4 791
2017/08/15 165 718 -2 277
2017/08/14 167 995 -4 750
2017/08/13 172 745 +1 084
2017/08/12 171 661 -1 033
2017/08/11 172 694 -858
2017/08/10 173 552 +2 414
2017/08/09 171 138 -611
2017/08/08 171 749 +1
2017/08/07 171 748 -1 216
2017/08/06 172 964 -1 939
2017/08/05 174 903 +3 762
2017/08/04 171 141 +3 449
2017/08/03 167 692 -290
2017/08/02 167 982 +687
2017/08/01 167 295 -2 534
2017/07/31 169 829 +1 829
2017/07/30 168 000 -2 636
2017/07/29 170 636 +7 134
2017/07/28 163 502 +2 302
2017/07/27 161 200 +5 538
2017/07/26 155 662 +2 621
2017/07/25 153 041 +2 529
2017/07/24 150 512 -3 298
2017/07/23 153 810 +1 864
2017/07/22 151 946 +521
2017/07/21 151 425 +1 954
2017/07/20 149 471 +5 695
2017/07/19 143 776 +1 230
2017/07/18 142 546 -991
2017/07/17 143 537 -2 138
2017/07/16 145 675 -4 064
2017/07/15 149 739 +4 320
2017/07/14 145 419 +4 185
2017/07/13 141 234 +2 298
2017/07/12 138 936 -90
2017/07/11 139 026 +1 429
2017/07/10 137 597 -65
2017/07/09 137 662 +26
2017/07/08 137 636 -168
2017/07/07 137 804 +3 374
2017/07/06 134 430 +1 915
2017/07/05 132 515 -541
2017/07/04 133 056 -1 006
2017/07/03 134 062 +5 562
2017/07/02 128 500 -22
2017/07/01 128 522 -2 785
2017/06/30 131 307 +1 802
2017/06/29 129 505 -2 486
2017/06/28 131 991 +92
2017/06/27 131 899 -3 249
2017/06/26 135 148 -802
2017/06/25 135 950 -1 755
2017/06/24 137 705 -39
2017/06/23 137 744

WIDGET FOR YOUR SITE

DOMAINS WITH THE NEAREST RANK

Domain Rank
vrsource.com 159 875
critizr.com 159 876
healthportalsite.com 159 877
bakersfield.com 159 878
rogueeurope.eu 159 879
iptv.ge 159 880
power-technology.com 159 881
wpcurve.com 159 882
propstoreauction.com 159 883
flymix.net 159 884
yqimh.net 159 885

DOMAINS WITH THE NEAREST RANK BY TLD .ge

Domain Rank
foxnews.ge 154 173
allnews.ge 155 155
footballnews.ge 155 542
tsu.ge 157 111
cyc.ge 159 839
iptv.ge 159 880
marao.ge 160 734
lider.ge 161 615
hr.ge 161 754